Time;durP1;ratioP1;P1;durP2;ratioP2;P2;SDS_P1;SDS_P2;PMS_P1;PMS_P2;Temp;Humidity;BMP_temperature;BMP_pressure;BME280_temperature;BME280_humidity;BME280_pressure;Samples;Min_cycle;Max_cycle;Signal;HPM_P1;HPM_P2
2021/01/21 00:00:26;;;;;;;0.32;0.22;;;;;;;4.72;79.41;96256.41;4422171;32;20045;-77
2021/01/21 00:02:52;;;;;;;0.28;0.00;;;;;;;4.71;79.52;96249.34;4423150;32;20283;-76
2021/01/21 00:05:18;;;;;;;0.80;0.10;;;;;;;4.77;79.25;96244.53;4426940;32;20065;-78
2021/01/21 00:07:44;;;;;;;0.52;0.15;;;;;;;4.77;78.96;96238.19;4423619;32;20512;-76
2021/01/21 00:10:09;;;;;;;0.30;0.10;;;;;;;4.81;80.05;96242.25;4416851;32;20104;-76
2021/01/21 00:12:35;;;;;;;0.17;0.10;;;;;;;4.90;78.59;96238.41;4421808;32;20386;-77
2021/01/21 00:15:01;;;;;;;1.20;0.10;;;;;;;4.76;78.43;96223.53;4428108;32;20097;-75
2021/01/21 00:17:26;;;;;;;0.17;0.00;;;;;;;4.80;80.09;96204.53;4421186;32;20069;-77
2021/01/21 00:19:52;;;;;;;0.85;0.45;;;;;;;4.80;78.11;96196.19;4425338;32;20081;-75
2021/01/21 00:22:17;;;;;;;0.35;0.05;;;;;;;4.74;78.68;96200.22;4419635;32;20086;-75
2021/01/21 00:24:43;;;;;;;0.22;0.10;;;;;;;4.68;78.15;96205.81;4419363;32;20456;-75
2021/01/21 00:27:09;;;;;;;0.68;0.10;;;;;;;4.74;78.15;96209.34;4424332;32;20026;-76
2021/01/21 00:29:34;;;;;;;0.90;0.45;;;;;;;4.63;78.07;96198.22;4419380;32;20041;-76
2021/01/21 00:32:00;;;;;;;0.10;0.10;;;;;;;4.84;76.52;96218.94;4424353;32;20060;-74
2021/01/21 00:34:26;;;;;;;0.52;0.30;;;;;;;4.88;76.04;96224.25;4418528;32;20492;-75
2021/01/21 00:36:51;;;;;;;0.10;0.10;;;;;;;4.70;76.96;96236.69;4420714;32;20065;-75
2021/01/21 00:39:17;;;;;;;1.83;0.20;;;;;;;4.69;76.06;96242.78;4422972;32;20416;-76
2021/01/21 00:41:43;;;;;;;1.73;0.20;;;;;;;4.66;76.89;96263.28;4419780;32;20171;-76
2021/01/21 00:44:08;;;;;;;0.10;0.10;;;;;;;4.76;76.78;96276.44;4419455;32;20038;-77
2021/01/21 00:46:34;;;;;;;1.20;0.30;;;;;;;4.83;76.57;96295.41;4421324;32;20423;-75
2021/01/21 00:49:00;;;;;;;0.85;0.30;;;;;;;4.90;77.48;96302.47;4420766;32;20135;-77
2021/01/21 00:51:26;;;;;;;1.75;0.20;;;;;;;4.87;77.38;96287.53;4424976;32;20493;-75
2021/01/21 00:53:52;;;;;;;2.60;0.50;;;;;;;4.80;77.66;96299.19;4420280;32;20434;-76
2021/01/21 00:56:19;;;;;;;2.53;0.30;;;;;;;4.88;77.85;96300.19;4426332;32;20038;-76
2021/01/21 00:58:45;;;;;;;1.92;0.50;;;;;;;4.97;78.25;96315.91;4419155;32;20052;-75
2021/01/21 01:01:11;;;;;;;1.17;0.40;;;;;;;5.19;76.89;96335.37;4420343;32;20068;-75
2021/01/21 01:03:37;;;;;;;4.60;0.40;;;;;;;5.08;76.28;96313.09;4419541;32;20034;-74
2021/01/21 01:06:05;;;;;;;3.78;0.50;;;;;;;4.95;77.01;96327.53;4418590;32;20077;-75
2021/01/21 01:08:31;;;;;;;2.03;0.40;;;;;;;4.97;77.30;96301.97;4419225;32;20068;-75
2021/01/21 01:10:57;;;;;;;1.70;0.82;;;;;;;5.20;77.04;96320.16;4418031;32;20038;-75
2021/01/21 01:13:24;;;;;;;1.08;0.40;;;;;;;5.19;76.25;96332.59;4423197;32;20096;-74
2021/01/21 01:15:49;;;;;;;4.40;0.60;;;;;;;5.33;76.34;96332.31;4420951;32;20397;-75
2021/01/21 01:18:15;;;;;;;2.53;0.60;;;;;;;5.09;77.01;96345.25;4422395;32;20162;-75
2021/01/21 01:20:40;;;;;;;1.62;0.65;;;;;;;5.15;76.71;96363.47;4419610;32;20039;-75
2021/01/21 01:23:06;;;;;;;2.00;0.60;;;;;;;5.18;78.23;96370.81;4419204;32;20070;-78
2021/01/21 01:25:33;;;;;;;3.12;0.80;;;;;;;5.15;78.24;96376.62;4418736;32;20073;-78
2021/01/21 01:27:59;;;;;;;3.42;0.95;;;;;;;5.03;79.63;96392.59;4425269;32;20430;-78
2021/01/21 01:30:24;;;;;;;2.20;0.98;;;;;;;5.27;78.71;96392.09;4421927;32;20052;-76
2021/01/21 01:32:50;;;;;;;2.40;0.73;;;;;;;5.26;78.87;96391.34;4423158;32;20026;-76
2021/01/21 01:35:16;;;;;;;2.35;0.75;;;;;;;5.35;79.79;96405.03;4420594;32;20637;-76
2021/01/21 01:37:42;;;;;;;1.55;0.85;;;;;;;5.36;79.54;96395.37;4421854;32;20434;-76
2021/01/21 01:40:10;;;;;;;1.30;0.80;;;;;;;5.30;79.25;96416.16;4418459;32;20095;-76
2021/01/21 01:42:36;;;;;;;3.60;0.25;;;;;;;5.43;78.62;96422.72;4423140;32;20081;-77
2021/01/21 01:45:03;;;;;;;1.58;0.30;;;;;;;5.36;79.27;96436.41;4422555;32;20073;-78
2021/01/21 01:47:31;;;;;;;1.10;0.20;;;;;;;5.42;79.28;96435.16;4421678;32;20168;-78
2021/01/21 01:49:57;;;;;;;1.85;0.13;;;;;;;5.29;78.77;96437.69;4428294;32;20109;-77
2021/01/21 01:52:27;;;;;;;0.25;0.13;;;;;;;5.21;79.10;96442.25;4425393;32;20035;-77
2021/01/21 01:54:54;;;;;;;0.68;0.20;;;;;;;5.24;80.47;96435.66;4423412;32;20328;-78
2021/01/21 01:57:21;;;;;;;0.50;0.30;;;;;;;5.29;79.70;96437.69;4422045;32;20410;-80
2021/01/21 01:59:50;;;;;;;0.65;0.30;;;;;;;5.22;80.07;96456.94;4428677;32;20400;-80
2021/01/21 02:02:16;;;;;;;1.00;0.50;;;;;;;5.14;79.85;96465.06;4423069;32;20058;-79
2021/01/21 02:04:42;;;;;;;5.07;0.65;;;;;;;5.17;79.70;96466.81;4423894;32;20017;-79
2021/01/21 02:07:07;;;;;;;1.33;0.65;;;;;;;5.23;79.86;96489.13;4424567;32;20076;-78
2021/01/21 02:09:34;;;;;;;1.20;0.47;;;;;;;5.14;79.57;96483.78;4428191;32;20065;-77
2021/01/21 02:12:21;;;;;;;3.65;0.50;;;;;;;5.16;79.50;96486.84;4418571;32;20074;-77
2021/01/21 02:17:38;;;;;;;0.73;0.45;;;;;;;5.53;77.41;96488.09;3984851;32;15122455;-78
2021/01/21 02:25:54;;;;;;;2.23;1.33;;;;;;;5.19;78.32;96500.50;4006013;31;15013760;-76
2021/01/21 02:28:50;;;;;;;3.50;2.37;;;;;;;4.93;80.78;96505.53;4456838;32;20158;-76
2021/01/21 02:34:04;;;;;;;9.00;4.07;;;;;;;5.25;79.76;96515.19;3979813;32;15023322;-77
2021/01/21 02:36:36;;;;;;;8.40;4.68;;;;;;;5.25;79.76;96515.19;4437436;32;20489;-76
2021/01/21 02:39:04;;;;;;;8.00;4.45;;;;;;;4.89;80.73;96523.75;4431703;32;20082;-78
2021/01/21 02:41:32;;;;;;;5.32;3.35;;;;;;;4.93;81.25;96527.03;4430985;32;20084;-76
2021/01/21 02:43:58;;;;;;;5.15;2.97;;;;;;;5.05;80.66;96528.59;4434577;32;20470;-76
2021/01/21 02:46:23;;;;;;;7.53;3.25;;;;;;;5.06;80.23;96535.69;4432696;32;20052;-77
2021/01/21 02:48:51;;;;;;;11.70;3.70;;;;;;;4.97;79.53;96544.28;4433213;32;20396;-76
2021/01/21 02:54:50;;;;;;;10.93;3.55;;;;;;;5.01;79.26;96556.72;4002770;31;15017610;-76
2021/01/21 02:57:26;;;;;;;6.30;2.72;;;;;;;4.98;78.77;96545.78;4437919;32;20466;-76
2021/01/21 02:59:55;;;;;;;9.48;3.00;;;;;;;4.95;78.45;96558.72;4442190;32;20044;-76
2021/01/21 03:02:24;;;;;;;11.32;3.33;;;;;;;4.87;77.83;96591.09;4456301;32;20063;-75
2021/01/21 03:04:53;;;;;;;9.23;3.22;;;;;;;4.92;78.66;96558.94;4449667;32;20108;-75
2021/01/21 03:07:21;;;;;;;8.77;3.10;;;;;;;4.90;78.66;96567.81;4451131;32;20061;-75
2021/01/21 03:09:47;;;;;;;7.75;2.90;;;;;;;4.90;79.02;96573.38;4449754;32;20472;-75
2021/01/21 03:12:15;;;;;;;14.52;3.37;;;;;;;5.09;77.27;96574.44;4449860;32;20149;-75
2021/01/21 03:14:40;;;;;;;6.95;3.08;;;;;;;5.13;77.09;96591.69;4451496;32;20066;-75
2021/01/21 03:17:06;;;;;;;7.35;2.47;;;;;;;5.06;77.37;96606.09;4450627;32;20080;-74
2021/01/21 03:19:32;;;;;;;3.60;2.05;;;;;;;5.18;78.06;96598.53;4449412;32;20060;-74
2021/01/21 03:21:58;;;;;;;9.15;2.33;;;;;;;5.14;77.53;96598.00;4451173;32;20033;-75
2021/01/21 03:24:23;;;;;;;5.32;2.35;;;;;;;5.13;78.12;96610.44;4454011;32;20064;-75
2021/01/21 03:26:49;;;;;;;2.75;1.80;;;;;;;5.13;79.18;96613.22;4452968;32;20085;-76
2021/01/21 03:29:15;;;;;;;3.70;2.10;;;;;;;5.02;79.90;96636.22;4450803;32;20072;-75
2021/01/21 03:31:40;;;;;;;2.15;1.40;;;;;;;5.06;81.46;96642.31;4452944;32;20094;-77
2021/01/21 03:34:06;;;;;;;4.47;1.65;;;;;;;4.79;81.88;96672.81;4446015;32;20447;-77
2021/01/21 03:36:32;;;;;;;5.30;1.80;;;;;;;4.46;83.43;96664.25;4435144;32;20038;-77
2021/01/21 03:38:57;;;;;;;4.40;2.30;;;;;;;4.46;83.70;96670.59;4438772;32;20037;-75
2021/01/21 03:41:23;;;;;;;4.12;2.30;;;;;;;4.57;83.78;96673.44;4440795;32;20119;-76
2021/01/21 03:43:49;;;;;;;4.47;2.20;;;;;;;4.68;83.01;96676.28;4438459;32;20033;-77
2021/01/21 03:46:14;;;;;;;9.20;2.70;;;;;;;4.77;82.37;96673.31;4438524;32;20590;-75
2021/01/21 03:48:40;;;;;;;5.12;2.17;;;;;;;4.91;82.55;96675.16;4437363;32;20139;-75
2021/01/21 03:51:05;;;;;;;7.68;2.78;;;;;;;5.01;80.02;96684.06;4438970;32;20053;-76
2021/01/21 03:53:31;;;;;;;6.07;2.30;;;;;;;4.98;81.05;96671.91;4437935;32;20049;-76
2021/01/21 03:55:57;;;;;;;4.15;1.75;;;;;;;4.88;81.57;96697.69;4437105;32;20033;-75
2021/01/21 03:58:23;;;;;;;5.37;1.95;;;;;;;4.84;80.05;96677.63;4435903;32;20140;-74
2021/01/21 04:00:49;;;;;;;4.85;2.17;;;;;;;4.77;80.22;96695.59;4437213;32;20065;-76
2021/01/21 04:03:14;;;;;;;4.12;1.98;;;;;;;4.69;81.63;96699.34;4436734;32;20030;-75
2021/01/21 04:05:40;;;;;;;8.35;2.22;;;;;;;4.53;83.09;96711.88;4426871;32;20042;-76
2021/01/21 04:08:05;;;;;;;5.43;2.10;;;;;;;4.50;82.48;96721.22;4426259;32;20033;-76
2021/01/21 04:10:31;;;;;;;7.68;2.28;;;;;;;4.61;81.49;96696.25;4426528;32;20473;-75
2021/01/21 04:12:57;;;;;;;3.37;1.70;;;;;;;4.66;81.34;96703.84;4430099;32;20089;-74
2021/01/21 04:15:22;;;;;;;3.65;1.67;;;;;;;4.63;79.93;96704.84;4427948;32;20080;-75
2021/01/21 04:17:48;;;;;;;2.10;1.27;;;;;;;4.67;79.94;96702.63;4423181;32;20045;-75
2021/01/21 04:20:14;;;;;;;3.00;1.50;;;;;;;4.64;78.92;96711.19;4429037;32;20081;-76
2021/01/21 04:22:39;;;;;;;3.70;1.40;;;;;;;4.65;80.10;96693.22;4426885;32;20479;-75
2021/01/21 04:25:05;;;;;;;2.80;1.02;;;;;;;4.67;79.46;96721.34;4423928;32;20501;-75
2021/01/21 04:27:31;;;;;;;4.18;1.37;;;;;;;4.75;78.33;96716.84;4428478;32;20381;-76
2021/01/21 04:29:57;;;;;;;2.87;0.80;;;;;;;4.72;78.34;96721.38;4416320;32;20069;-75
2021/01/21 04:32:22;;;;;;;4.45;0.77;;;;;;;4.70;75.87;96726.69;4424225;32;20146;-75
2021/01/21 04:34:48;;;;;;;4.53;0.98;;;;;;;4.78;76.37;96735.31;4425014;32;20432;-75
2021/01/21 04:37:13;;;;;;;2.90;0.80;;;;;;;4.70;77.19;96740.59;4430773;32;20073;-75
2021/01/21 04:39:40;;;;;;;5.78;1.17;;;;;;;4.73;74.84;96739.63;4416300;32;20049;-74
2021/01/21 04:42:06;;;;;;;2.53;0.73;;;;;;;4.82;74.43;96750.53;4423244;32;20062;-74
2021/01/21 04:44:31;;;;;;;5.22;1.02;;;;;;;4.80;73.95;96767.00;4429401;32;20445;-76
2021/01/21 04:46:59;;;;;;;3.58;1.27;;;;;;;4.85;74.42;96743.97;4427773;32;20050;-76
2021/01/21 04:49:28;;;;;;;2.42;0.85;;;;;;;4.80;75.18;96761.44;4426975;32;20511;-76
2021/01/21 04:52:01;;;;;;;4.07;1.10;;;;;;;4.80;75.51;96763.44;4427768;32;20037;-76
2021/01/21 04:54:32;;;;;;;2.65;1.10;;;;;;;4.83;75.68;96773.59;4431174;32;20046;-75
2021/01/21 04:57:02;;;;;;;5.55;0.95;;;;;;;4.86;75.34;96765.00;4430750;32;20079;-75
2021/01/21 04:59:34;;;;;;;5.28;1.10;;;;;;;4.86;73.82;96770.59;4428635;32;20121;-75
2021/01/21 05:02:01;;;;;;;1.50;0.68;;;;;;;4.85;73.61;96759.94;4426552;32;20069;-75
2021/01/21 05:04:28;;;;;;;3.08;0.68;;;;;;;4.86;73.57;96765.00;4426732;32;20030;-75
2021/01/21 05:06:54;;;;;;;2.58;0.98;;;;;;;4.80;73.87;96771.78;4429226;32;20426;-75
2021/01/21 05:09:20;;;;;;;3.00;0.77;;;;;;;4.79;73.83;96778.63;4426487;32;20104;-75
2021/01/21 05:11:46;;;;;;;2.37;1.05;;;;;;;4.87;74.03;96774.88;4426106;32;20069;-76
2021/01/21 05:14:12;;;;;;;2.35;1.20;;;;;;;4.87;73.92;96771.31;4424998;32;20445;-76
2021/01/21 05:16:39;;;;;;;4.37;1.37;;;;;;;4.85;73.03;96782.97;4426258;32;20069;-76
2021/01/21 05:19:05;;;;;;;2.22;1.10;;;;;;;4.86;73.64;96792.87;4422665;32;20089;-76
2021/01/21 05:21:31;;;;;;;1.62;0.80;;;;;;;4.84;74.32;96792.59;4427913;32;20034;-76
2021/01/21 05:23:57;;;;;;;1.73;0.90;;;;;;;4.85;73.70;96796.88;4425534;32;20022;-76
2021/01/21 05:26:24;;;;;;;2.00;1.08;;;;;;;4.95;74.12;96801.03;4427836;32;20029;-76
2021/01/21 05:28:51;;;;;;;4.62;1.00;;;;;;;4.93;74.56;96808.34;4428566;32;20058;-76
2021/01/21 05:31:18;;;;;;;3.15;0.88;;;;;;;4.95;74.82;96795.47;4426502;32;20366;-76
2021/01/21 05:33:44;;;;;;;1.98;0.85;;;;;;;4.89;74.86;96788.31;4426870;32;20061;-76
2021/01/21 05:36:11;;;;;;;3.75;1.20;;;;;;;4.94;74.79;96807.09;4428010;32;20037;-77
2021/01/21 05:38:41;;;;;;;6.07;1.20;;;;;;;4.89;75.70;96802.25;4427349;32;20477;-77
2021/01/21 05:41:08;;;;;;;2.40;0.98;;;;;;;4.92;76.21;96802.03;4427953;32;20068;-78
2021/01/21 05:43:35;;;;;;;6.25;1.92;;;;;;;4.97;75.75;96820.78;4421405;32;20532;-78
2021/01/21 05:46:00;;;;;;;4.55;1.17;;;;;;;4.91;76.10;96822.75;4427493;32;20033;-77
2021/01/21 05:48:32;;;;;;;2.30;0.80;;;;;;;4.76;76.17;96818.59;4424864;32;20068;-78
2021/01/21 05:50:57;;;;;;;4.15;1.00;;;;;;;4.88;76.64;96825.78;4428285;32;20045;-77
2021/01/21 05:53:23;;;;;;;4.55;0.95;;;;;;;4.81;76.43;96829.00;4428362;32;20218;-76
2021/01/21 05:55:50;;;;;;;2.97;0.90;;;;;;;4.88;76.61;96834.88;4426052;32;20072;-77
2021/01/21 05:58:16;;;;;;;4.95;0.82;;;;;;;4.90;76.68;96818.47;4426790;32;20060;-78
2021/01/21 06:00:43;;;;;;;3.28;0.90;;;;;;;4.91;76.60;96838.72;4431961;32;20042;-78
2021/01/21 06:03:09;;;;;;;2.70;1.00;;;;;;;4.96;76.45;96844.34;4424878;32;20022;-76
2021/01/21 06:05:36;;;;;;;3.85;1.10;;;;;;;5.01;76.72;96848.41;4429513;32;20098;-76
2021/01/21 06:08:02;;;;;;;6.90;0.80;;;;;;;5.05;76.57;96851.72;4424305;32;20042;-77
2021/01/21 06:10:28;;;;;;;3.47;0.90;;;;;;;4.92;76.46;96837.47;4427290;32;20042;-78
2021/01/21 06:12:54;;;;;;;5.37;1.12;;;;;;;5.04;76.30;96839.84;4429785;32;20133;-77
2021/01/21 06:15:20;;;;;;;5.18;0.88;;;;;;;5.02;76.00;96838.78;4429119;32;20049;-78
2021/01/21 06:17:48;;;;;;;3.20;1.40;;;;;;;5.11;76.06;96838.63;4425889;32;20068;-79
2021/01/21 06:20:14;;;;;;;3.22;1.20;;;;;;;5.11;75.56;96838.63;4427755;32;20096;-76
2021/01/21 06:22:42;;;;;;;3.55;1.10;;;;;;;5.09;75.62;96835.56;4424922;32;20025;-79
2021/01/21 06:25:12;;;;;;;1.17;0.80;;;;;;;5.02;75.79;96845.13;4422139;32;20362;-78
2021/01/21 06:27:42;;;;;;;3.65;1.27;;;;;;;4.87;76.00;96852.09;4425909;32;20077;-77
2021/01/21 06:30:11;;;;;;;4.28;1.30;;;;;;;5.01;75.86;96846.41;4423870;32;20081;-77
2021/01/21 06:35:29;;;;;;;2.60;1.30;;;;;;;5.36;74.87;96848.91;4006131;31;15014636;-78
2021/01/21 06:37:59;;;;;;;2.50;1.02;;;;;;;5.36;74.87;96848.91;4460663;32;20059;-81
2021/01/21 06:40:27;;;;;;;3.47;1.10;;;;;;;4.80;75.90;96853.31;4459328;32;20024;-77
2021/01/21 06:43:00;;;;;;;4.45;1.20;;;;;;;4.75;76.12;96856.81;4461125;32;20055;-79
2021/01/21 06:45:27;;;;;;;2.58;0.95;;;;;;;4.70;76.16;96849.19;4460560;32;20090;-77
2021/01/21 06:47:54;;;;;;;3.87;1.12;;;;;;;4.74;76.37;96851.75;4459652;32;20036;-80
2021/01/21 06:50:20;;;;;;;3.08;1.30;;;;;;;4.74;76.23;96849.72;4459400;32;20044;-77
2021/01/21 06:52:47;;;;;;;3.40;0.98;;;;;;;4.70;76.39;96848.41;4460335;32;20170;-79
2021/01/21 06:55:13;;;;;;;1.52;0.60;;;;;;;4.80;76.20;96858.91;4460838;32;20076;-77
2021/01/21 07:00:18;;;;;;;2.97;0.43;;;;;;;4.96;76.33;96855.47;3959334;32;15723645;-77
2021/01/21 07:05:23;;;;;;;3.53;0.95;;;;;;;5.11;76.62;96856.09;3987391;32;15022269;-76
2021/01/21 07:10:44;;;;;;;0.90;0.70;;;;;;;5.08;76.44;96840.38;4005367;31;15015085;-77
2021/01/21 07:15:55;;;;;;;2.20;0.90;;;;;;;4.81;77.72;96843.69;3958879;32;15724511;-77
2021/01/21 07:18:22;;;;;;;2.00;0.82;;;;;;;4.79;77.58;96856.59;4437591;32;20126;-79
2021/01/21 07:40:08;;;;;;;4.65;1.37;;;;;;;5.56;75.32;96871.09;3984618;32;15023679;-77
2021/01/21 07:47:55;;;;;;;4.90;1.20;;;;;;;5.57;75.50;96897.72;3995636;31;15017090;-77
2021/01/21 07:52:59;;;;;;;4.62;1.30;;;;;;;5.69;75.09;96890.94;3986669;32;15024890;-81
2021/01/21 07:58:29;;;;;;;5.12;0.93;;;;;;;5.74;74.58;96887.44;3983078;32;15025689;-77
2021/01/21 08:00:57;;;;;;;4.57;0.90;;;;;;;5.74;74.58;96887.44;4431084;32;20433;-79
2021/01/21 08:06:09;;;;;;;5.12;0.80;;;;;;;5.82;74.02;96860.59;3984895;32;15023747;-80
2021/01/21 08:08:35;;;;;;;5.28;1.08;;;;;;;5.82;74.02;96860.59;4437063;32;20036;-79
2021/01/21 08:11:04;;;;;;;2.33;0.90;;;;;;;5.37;74.74;96858.81;4436172;32;20114;-78
2021/01/21 08:13:31;;;;;;;1.40;0.80;;;;;;;5.39;74.68;96856.28;4437990;32;20440;-77
2021/01/21 08:15:56;;;;;;;1.40;0.62;;;;;;;5.40;74.92;96855.78;4432398;32;20033;-78
2021/01/21 08:18:22;;;;;;;5.30;0.98;;;;;;;5.31;74.85;96861.53;4438650;32;20100;-77
2021/01/21 08:20:49;;;;;;;0.98;0.60;;;;;;;5.38;75.02;96868.69;4437767;32;20060;-78
2021/01/21 08:23:16;;;;;;;1.73;0.90;;;;;;;5.39;75.07;96862.63;4439223;32;20198;-78
2021/01/21 08:25:44;;;;;;;1.05;0.80;;;;;;;5.37;75.10;96861.59;4438902;32;20148;-77
2021/01/21 08:28:13;;;;;;;7.95;1.12;;;;;;;5.39;74.90;96873.00;4439882;32;20180;-77
2021/01/21 08:30:39;;;;;;;5.45;1.05;;;;;;;5.42;74.65;96863.66;4442504;32;20175;-76
2021/01/21 08:35:48;;;;;;;5.65;1.08;;;;;;;5.44;74.33;96864.69;3988849;32;15048875;-77
2021/01/21 08:38:18;;;;;;;3.22;0.98;;;;;;;5.43;74.39;96876.34;4436696;32;20103;-76
2021/01/21 08:40:45;;;;;;;3.95;0.98;;;;;;;5.44;73.65;96870.28;4440510;32;20038;-77
2021/01/21 08:43:11;;;;;;;3.65;1.00;;;;;;;5.55;73.36;96877.91;4441539;32;20077;-77
2021/01/21 08:45:38;;;;;;;3.97;1.08;;;;;;;5.52;73.14;96870.53;4444000;32;20052;-77
2021/01/21 08:48:04;;;;;;;2.45;1.20;;;;;;;5.56;72.96;96877.41;4440676;32;20071;-77
2021/01/21 08:50:36;;;;;;;5.70;1.48;;;;;;;5.62;73.19;96861.47;4441328;32;20033;-78
2021/01/21 08:53:07;;;;;;;3.87;1.30;;;;;;;5.56;73.22;96862.72;4443341;32;20041;-77
2021/01/21 08:58:14;;;;;;;5.25;1.10;;;;;;;6.01;72.47;96878.44;3974825;32;15023040;-84
2021/01/21 09:03:45;;;;;;;5.18;1.48;;;;;;;6.04;72.58;96875.41;3987470;32;15023384;-82
2021/01/21 09:06:11;;;;;;;;;;;;;;;6.04;72.58;96875.41;4438582;32;20064;-81
2021/01/21 09:08:55;;;;;;;5.82;1.27;;;;;;;5.50;73.10;96890.56;4442441;32;19948;-82
2021/01/21 09:14:07;;;;;;;1.90;1.00;;;;;;;6.07;71.42;96890.38;3986778;32;15024104;-81
2021/01/21 09:16:41;;;;;;;6.25;1.23;;;;;;;6.07;71.42;96890.38;4440128;32;20093;-81
2021/01/21 09:19:07;;;;;;;3.12;0.80;;;;;;;5.61;72.25;96896.22;4444398;32;20022;-86
2021/01/21 09:21:33;;;;;;;5.82;1.50;;;;;;;5.58;72.60;96897.22;4445926;32;20153;-81
2021/01/21 09:24:09;;;;;;;2.50;0.75;;;;;;;5.63;72.26;96907.66;4443684;32;20572;-80
2021/01/21 09:26:35;;;;;;;5.43;1.30;;;;;;;5.78;70.84;96904.69;4444292;32;20147;-81
2021/01/21 09:29:01;;;;;;;4.87;0.55;;;;;;;5.91;70.55;96880.69;4443274;32;20422;-79
2021/01/21 09:31:30;;;;;;;3.15;0.50;;;;;;;5.98;69.76;96879.44;4443566;32;20041;-78
2021/01/21 09:33:56;;;;;;;2.97;0.40;;;;;;;6.01;69.39;96884.00;4438060;32;20033;-79
2021/01/21 09:36:27;;;;;;;1.15;0.43;;;;;;;6.11;69.39;96911.22;4427251;32;20071;-78
2021/01/21 09:38:53;;;;;;;5.85;0.30;;;;;;;6.12;68.85;96907.16;4427011;32;20457;-78
2021/01/21 09:41:19;;;;;;;4.62;0.50;;;;;;;6.22;68.56;96912.53;4427639;32;20059;-79
2021/01/21 09:43:45;;;;;;;4.35;0.65;;;;;;;6.25;68.04;96903.91;4425012;32;20109;-79
2021/01/21 09:46:10;;;;;;;3.53;1.00;;;;;;;6.30;68.06;96908.00;4428634;32;20073;-80
2021/01/21 09:48:36;;;;;;;2.47;0.70;;;;;;;6.38;67.71;96911.84;4423044;32;20105;-77
2021/01/21 09:51:02;;;;;;;3.70;0.60;;;;;;;6.14;68.02;96907.41;4423517;32;20033;-81
2021/01/21 09:53:28;;;;;;;4.45;1.08;;;;;;;6.24;67.95;96894.00;4419340;32;20115;-81
2021/01/21 09:55:55;;;;;;;2.75;1.17;;;;;;;6.43;67.69;96919.44;4420963;32;20038;-81
2021/01/21 09:58:23;;;;;;;1.95;0.60;;;;;;;6.40;67.37;96920.44;4424643;32;20102;-81
2021/01/21 10:00:48;;;;;;;1.83;0.60;;;;;;;6.54;66.96;96919.50;4425688;32;20091;-81
2021/01/21 10:03:14;;;;;;;3.60;1.60;;;;;;;6.83;66.13;96916.25;4424156;32;20426;-79
2021/01/21 10:05:40;;;;;;;2.20;0.43;;;;;;;6.97;65.08;96912.47;4423572;32;20034;-83
2021/01/21 10:08:06;;;;;;;8.73;1.75;;;;;;;7.06;65.09;96924.16;4420855;32;20140;-81
2021/01/21 10:10:31;;;;;;;4.30;0.70;;;;;;;7.17;64.95;96954.16;4425028;32;20060;-82
2021/01/21 10:12:57;;;;;;;5.70;1.12;;;;;;;7.03;64.95;96935.59;4428038;32;20060;-78
2021/01/21 10:15:22;;;;;;;5.43;0.50;;;;;;;7.10;65.24;96958.22;4427990;32;20042;-81
2021/01/21 10:17:48;;;;;;;4.72;0.77;;;;;;;7.03;64.87;96939.13;4425860;32;20129;-79
2021/01/21 10:20:14;;;;;;;9.48;1.40;;;;;;;7.07;64.47;96959.22;4428529;32;20034;-79
2021/01/21 10:22:40;;;;;;;2.20;0.73;;;;;;;7.06;65.11;96959.75;4428206;32;20085;-77
2021/01/21 10:25:06;;;;;;;2.78;1.12;;;;;;;7.08;64.73;96959.97;4415939;32;20473;-81
2021/01/21 10:27:32;;;;;;;4.05;0.90;;;;;;;7.13;64.69;96976.00;4417402;32;20127;-77
2021/01/21 10:29:57;;;;;;;1.55;0.35;;;;;;;7.25;64.10;96964.34;4416081;32;20069;-81
2021/01/21 10:32:23;;;;;;;5.80;0.82;;;;;;;7.25;63.71;96980.34;4413055;32;20163;-82
2021/01/21 10:34:48;;;;;;;3.62;0.90;;;;;;;7.31;64.32;96979.09;4414404;32;20072;-81
2021/01/21 10:37:14;;;;;;;2.58;0.50;;;;;;;7.14;64.43;96985.91;4411204;32;20134;-80
2021/01/21 10:39:40;;;;;;;3.95;0.47;;;;;;;6.99;64.51;96969.38;4412569;32;20057;-81
2021/01/21 10:42:05;;;;;;;6.65;1.00;;;;;;;6.95;64.97;96985.63;4416021;32;20129;-81
2021/01/21 10:44:31;;;;;;;4.05;1.20;;;;;;;7.00;64.74;96984.13;4412576;32;20707;-83
2021/01/21 10:46:56;;;;;;;1.92;0.90;;;;;;;7.02;64.57;96998.34;4413703;32;20038;-82
2021/01/21 10:49:22;;;;;;;3.83;0.90;;;;;;;7.04;64.69;96988.19;4415046;32;20147;-81
2021/01/21 10:51:48;;;;;;;4.68;1.05;;;;;;;7.27;64.65;97009.31;4409725;32;20435;-81
2021/01/21 10:54:14;;;;;;;3.87;0.40;;;;;;;7.46;64.51;97001.97;4407111;32;20082;-83
2021/01/21 10:56:39;;;;;;;5.28;0.75;;;;;;;7.50;64.29;96996.13;4409211;32;20022;-83
2021/01/21 10:59:06;;;;;;;3.65;0.55;;;;;;;7.48;64.70;97004.25;4414434;32;20352;-80
2021/01/21 11:01:34;;;;;;;4.37;0.80;;;;;;;7.23;65.19;96997.63;4416819;32;20042;-82
2021/01/21 11:04:00;;;;;;;3.22;0.68;;;;;;;7.22;65.50;97012.13;4414086;32;20077;-80
2021/01/21 11:06:26;;;;;;;6.32;0.50;;;;;;;7.08;65.96;96993.53;4414719;32;20144;-81
2021/01/21 11:08:51;;;;;;;5.32;1.05;;;;;;;7.05;65.81;96998.09;4411378;32;20449;-83
2021/01/21 11:11:17;;;;;;;1.73;0.50;;;;;;;7.08;65.72;96994.28;4419025;32;20410;-81
2021/01/21 11:13:43;;;;;;;4.55;0.70;;;;;;;7.03;65.57;97022.25;4414454;32;20035;-79
2021/01/21 11:16:10;;;;;;;3.12;0.32;;;;;;;7.13;65.87;97006.75;4415092;32;20100;-84
2021/01/21 11:18:36;;;;;;;3.65;0.88;;;;;;;7.25;65.32;97025.06;4413411;32;20056;-80
2021/01/21 11:21:02;;;;;;;0.88;0.40;;;;;;;7.33;64.47;97010.09;4417385;32;20038;-81
2021/01/21 11:23:28;;;;;;;5.20;0.37;;;;;;;7.31;64.74;97031.44;4414714;32;20065;-81
2021/01/21 11:25:54;;;;;;;6.10;1.80;;;;;;;7.44;64.21;97020.53;4414310;32;20087;-78
2021/01/21 11:28:21;;;;;;;4.10;0.85;;;;;;;7.49;64.18;97019.78;4417267;32;20084;-79
2021/01/21 11:30:49;;;;;;;2.20;0.62;;;;;;;7.58;64.31;97025.88;4412964;32;20034;-81
2021/01/21 11:33:15;;;;;;;3.65;0.50;;;;;;;7.82;63.20;97028.16;4411008;32;20091;-79
2021/01/21 11:35:41;;;;;;;3.35;0.82;;;;;;;7.93;63.34;97051.34;4407604;32;20112;-82
2021/01/21 11:38:06;;;;;;;1.25;0.45;;;;;;;7.80;63.21;97017.47;4414289;32;20387;-79
2021/01/21 11:40:32;;;;;;;3.25;1.00;;;;;;;7.94;63.18;97008.06;4409385;32;20390;-80
2021/01/21 11:42:58;;;;;;;3.87;1.00;;;;;;;7.90;63.64;97026.38;4412909;32;20454;-78
2021/01/21 11:45:24;;;;;;;4.30;1.27;;;;;;;7.77;64.04;97045.72;4414639;32;20097;-83
2021/01/21 11:47:49;;;;;;;2.78;0.68;;;;;;;7.81;63.59;97030.22;4412199;32;20416;-84
2021/01/21 11:50:17;;;;;;;2.97;0.80;;;;;;;7.89;62.82;97044.47;4415159;32;20026;-80
2021/01/21 11:52:43;;;;;;;0.82;0.50;;;;;;;7.94;63.73;97035.28;4413006;32;20030;-82
2021/01/21 11:55:11;;;;;;;4.30;0.68;;;;;;;8.28;62.76;97048.00;4410062;32;20022;-79
2021/01/21 11:57:38;;;;;;;5.15;0.73;;;;;;;8.05;63.08;97052.09;4412389;32;20060;-79
2021/01/21 12:02:43;;;;;;;2.20;0.57;;;;;;;8.31;62.93;97057.44;3988146;32;15028496;-83
2021/01/21 12:05:10;;;;;;;3.40;0.50;;;;;;;8.31;62.93;97057.44;4441577;32;20449;-82
2021/01/21 12:07:36;;;;;;;5.87;1.02;;;;;;;7.99;63.27;97059.72;4441515;32;20065;-83
2021/01/21 12:10:04;;;;;;;4.28;0.77;;;;;;;8.11;62.78;97041.66;4436968;32;20084;-83
2021/01/21 12:12:30;;;;;;;3.55;1.33;;;;;;;8.37;62.02;97105.81;4445234;32;20089;-84
2021/01/21 12:14:56;;;;;;;3.15;0.82;;;;;;;8.18;63.11;97050.28;4442487;32;20396;-82
2021/01/21 12:17:21;;;;;;;4.78;1.83;;;;;;;8.22;62.55;97057.66;4436710;32;20074;-82
2021/01/21 12:19:47;;;;;;;3.97;1.00;;;;;;;8.18;63.15;97081.09;4436677;32;20038;-82
2021/01/21 12:22:13;;;;;;;4.40;1.20;;;;;;;8.03;63.18;97074.22;4439124;32;20021;-83
2021/01/21 12:24:40;;;;;;;4.90;1.12;;;;;;;7.87;63.91;97083.38;4433503;32;20037;-83
2021/01/21 12:27:05;;;;;;;2.22;0.88;;;;;;;7.83;63.75;97080.81;4439491;32;20099;-83
2021/01/21 12:29:31;;;;;;;6.87;0.90;;;;;;;7.63;64.66;97080.31;4444013;32;20065;-82
2021/01/21 12:31:57;;;;;;;3.85;1.00;;;;;;;7.94;64.27;97099.66;4438413;32;20090;-83
2021/01/21 12:34:23;;;;;;;2.85;0.95;;;;;;;7.97;63.00;97087.44;4426354;32;20096;-83
2021/01/21 12:36:49;;;;;;;2.55;0.68;;;;;;;7.99;63.86;97079.31;4423287;32;20014;-84
2021/01/21 12:39:15;;;;;;;4.12;1.27;;;;;;;7.90;63.62;97099.16;4424488;32;20042;-83
2021/01/21 12:41:41;;;;;;;4.18;1.10;;;;;;;8.08;64.32;97096.59;4428276;32;20089;-83
2021/01/21 12:44:07;;;;;;;2.60;0.75;;;;;;;7.86;64.48;97096.59;4425861;32;20070;-83
2021/01/21 12:46:32;;;;;;;4.65;1.17;;;;;;;7.89;64.02;97095.59;4425924;32;20064;-81
2021/01/21 12:48:58;;;;;;;4.07;0.60;;;;;;;7.87;64.48;97095.34;4427418;32;20064;-82
2021/01/21 12:51:24;;;;;;;4.40;0.90;;;;;;;7.73;65.31;97101.94;4425956;32;20411;-86